METAR Analyzer

List View

Hello, Guest. (Login)

RJCC/CTS  -  札幌/新千歳

Obs at
2021-01-27 15:00 (UTC) (27min ago)
Temp
-2
Dew-pt
-9
T-Td
7
RH
58.7%
QNH
1015hPa
Est. Station Pressure
1012.0hPa
Est. SLP
1015.2hPa
Feels like
-14.1
(no wind)
3.8
HI
-4.6
Temp chg in 24h
-4
Feels-like chg in 24h
-0.2
HI chg in 24h
-5
H-Vis
>10000m
V-Vis
No data
CIG
5000ft AGL
V/I
VMC (VFR)
RVR
No RVR data
Wind
9kt from 310° (280° ~ 340°)
Gust
No gust
Precipitation
Not reported
Other Wx
Not reported
Clouds
Few clouds @ 3000ft AGL / Broken clouds @ 5000ft AGL

RJCC 271500Z 31009KT 280V340 9999 FEW030 BKN050 M02/M09 Q1015

RJTT/HND  -  東京/羽田

Obs at
2021-01-27 15:00 (UTC) (27min ago)
Temp
9
Dew-pt
-1
T-Td
10
RH
49.5%
QNH
1016hPa
Est. Station Pressure
1015.3hPa
Est. SLP
1016.0hPa
Feels like
0.5
(no wind)
11.9
HI
7.2
Temp chg in 24h
-1
Feels-like chg in 24h
-3.8
HI chg in 24h
-1.8
H-Vis
>10000m
V-Vis
No data
CIG
No dense clouds
V/I
VMC (VFR)
RVR
No RVR data
Wind
7kt from 20°
Gust
No gust
Precipitation
Not reported
Other Wx
Not reported
Clouds
Few clouds @ 3000ft AGL / Scattered clouds @ 7000ft AGL

RJTT 271500Z 02007KT 9999 FEW030 SCT070 09/M01 Q1016 NOSIG

RJAA/NRT  -  東京/成田

Obs at
2021-01-27 15:00 (UTC) (27min ago)
Temp
5
Dew-pt
-1
T-Td
6
RH
65.1%
QNH
1016hPa
Est. Station Pressure
1014.7hPa
Est. SLP
1016.1hPa
Feels like
-6.1
(no wind)
8.8
HI
3.3
Temp chg in 24h
-3
Feels-like chg in 24h
-11.8
HI chg in 24h
-4
H-Vis
>10000m
V-Vis
No data
CIG
No dense clouds
V/I
VMC (VFR)
RVR
No RVR data
Wind
9kt from 360°
Gust
No gust
Precipitation
Not reported
Other Wx
Not reported
Clouds
Few clouds @ 3000ft AGL / Scattered clouds @ unknown height

RJAA 271500Z 36009KT 9999 FEW030 SCT/// 05/M01 Q1016 NOSIG

RJGG/NGO  -  名古屋/中部

Obs at
2021-01-27 15:00 (UTC) (27min ago)
Temp
6
Dew-pt
1
T-Td
5
RH
70.2%
QNH
1015hPa
Est. Station Pressure
1014.5hPa
Est. SLP
1015.0hPa
Feels like
-5.7
(no wind)
9.5
HI
4.5
Temp chg in 24h
-6
Feels-like chg in 24h
-7.1
HI chg in 24h
-7
H-Vis
>10000m
V-Vis
No data
CIG
No dense clouds
V/I
VMC (VFR)
RVR
No RVR data
Wind
10kt from 350°
Gust
No gust
Precipitation
Not reported
Other Wx
Not reported
Clouds
Few clouds @ 3000ft AGL

RJGG 271500Z 35010KT 9999 FEW030 06/01 Q1015 NOSIG

RJBB/KIX  -  大阪/関西

Obs at
2021-01-27 15:00 (UTC) (27min ago)
Temp
9
Dew-pt
2
T-Td
7
RH
61.5%
QNH
1017hPa
Est. Station Pressure
1016.4hPa
Est. SLP
1017.0hPa
Feels like
-3.2
(no wind)
11.9
HI
7.6
Temp chg in 24h
-2
Feels-like chg in 24h
-3.2
HI chg in 24h
-3.2
H-Vis
>10000m
V-Vis
No data
CIG
No data
V/I
Unavailable
RVR
No RVR data
Wind
15kt from 40°
Gust
No gust
Precipitation
Not reported
Other Wx
NSC
Clouds
Not reported

RJBB 271500Z AUTO 04015KT 9999 NSC 09/02 Q1017 NOSIG

RJFF/FUK  -  福岡

Obs at
2021-01-27 15:00 (UTC) (27min ago)
Temp
5
Dew-pt
2
T-Td
3
RH
80.9%
QNH
1017hPa
Est. Station Pressure
1015.9hPa
Est. SLP
1017.0hPa
Feels like
-1.5
(no wind)
8.5
HI
3.7
Temp chg in 24h
-6
Feels-like chg in 24h
-6.6
HI chg in 24h
-6.9
H-Vis
>10000m
V-Vis
No data
CIG
No data
V/I
Unavailable
RVR
No RVR data
Wind
3kt from 150°
Gust
No gust
Precipitation
Not reported
Other Wx
NSC
Clouds
Not reported

RJFF 271500Z AUTO 15003KT 9999 NSC 05/02 Q1017 NOSIG

ROAH/OKA  -  那覇

Obs at
2021-01-27 15:00 (UTC) (27min ago)
Temp
18
Dew-pt
11
T-Td
7
RH
63.6%
QNH
1016hPa
Est. Station Pressure
1015.6hPa
Est. SLP
1016.0hPa
Feels like
9.3
(no wind)
18.7
HI
17.5
Temp chg in 24h
-1
Feels-like chg in 24h
-0.3
HI chg in 24h
-1.4
H-Vis
>10000m
V-Vis
No data
CIG
4500ft AGL
V/I
VMC (VFR)
RVR
No RVR data
Wind
11kt from 320°
Gust
No gust
Precipitation
Shower in Vicinity
Other Wx
Not reported
Clouds
Few clouds @ 3000ft AGL / Broken clouds @ 4500ft AGL

ROAH 271500Z 32011KT 9999 VCSH FEW030 BKN045 18/11 Q1016

22.6msec